sensor_id;sensor_type;location;lat;lon;timestamp;pressure;altitude;pressure_sealevel;temperature;humidity
33781;BME280;20097;50.832;19.100;2023-04-28T00:01:50;98717.06;;;4.70;100.00
33781;BME280;20097;50.832;19.100;2023-04-28T00:06:55;98717.88;;;4.71;100.00
33781;BME280;20097;50.832;19.100;2023-04-28T00:12:00;98713.41;;;4.73;100.00
33781;BME280;20097;50.832;19.100;2023-04-28T00:17:04;98707.16;;;4.75;100.00
33781;BME280;20097;50.832;19.100;2023-04-28T00:22:10;98711.88;;;4.70;100.00
33781;BME280;20097;50.832;19.100;2023-04-28T00:27:14;98717.69;;;4.63;100.00
33781;BME280;20097;50.832;19.100;2023-04-28T00:32:19;98710.63;;;4.65;100.00
33781;BME280;20097;50.832;19.100;2023-04-28T00:37:24;98711.69;;;4.62;100.00
33781;BME280;20097;50.832;19.100;2023-04-28T00:42:29;98710.72;;;4.54;100.00
33781;BME280;20097;50.832;19.100;2023-04-28T00:47:33;98719.06;;;4.46;100.00
33781;BME280;20097;50.832;19.100;2023-04-28T00:52:39;98715.19;;;4.52;100.00
33781;BME280;20097;50.832;19.100;2023-04-28T00:57:44;98718.97;;;4.68;100.00
33781;BME280;20097;50.832;19.100;2023-04-28T01:02:49;98725.19;;;4.66;100.00
33781;BME280;20097;50.832;19.100;2023-04-28T01:07:55;98725.75;;;4.69;100.00
33781;BME280;20097;50.832;19.100;2023-04-28T01:12:59;98730.09;;;4.69;100.00
33781;BME280;20097;50.832;19.100;2023-04-28T01:18:03;98728.03;;;4.63;100.00
33781;BME280;20097;50.832;19.100;2023-04-28T01:23:11;98723.78;;;4.41;100.00
33781;BME280;20097;50.832;19.100;2023-04-28T01:28:17;98715.25;;;4.30;100.00
33781;BME280;20097;50.832;19.100;2023-04-28T01:33:21;98712.00;;;4.28;100.00
33781;BME280;20097;50.832;19.100;2023-04-28T01:38:26;98715.63;;;4.04;100.00
33781;BME280;20097;50.832;19.100;2023-04-28T01:43:31;98724.13;;;3.84;100.00
33781;BME280;20097;50.832;19.100;2023-04-28T01:48:36;98718.03;;;3.74;100.00
33781;BME280;20097;50.832;19.100;2023-04-28T01:53:40;98728.63;;;3.60;100.00
33781;BME280;20097;50.832;19.100;2023-04-28T01:58:47;98729.31;;;3.51;100.00
33781;BME280;20097;50.832;19.100;2023-04-28T02:03:51;98720.09;;;3.38;100.00
33781;BME280;20097;50.832;19.100;2023-04-28T02:08:58;98714.00;;;3.06;100.00
33781;BME280;20097;50.832;19.100;2023-04-28T02:14:03;98712.56;;;3.02;100.00
33781;BME280;20097;50.832;19.100;2023-04-28T02:19:07;98712.22;;;2.95;100.00
33781;BME280;20097;50.832;19.100;2023-04-28T02:24:12;98705.88;;;2.88;100.00
33781;BME280;20097;50.832;19.100;2023-04-28T02:29:18;98715.34;;;2.76;100.00
33781;BME280;20097;50.832;19.100;2023-04-28T02:34:22;98704.38;;;2.40;100.00
33781;BME280;20097;50.832;19.100;2023-04-28T02:39:26;98700.88;;;2.41;100.00
33781;BME280;20097;50.832;19.100;2023-04-28T02:44:33;98700.97;;;2.39;100.00
33781;BME280;20097;50.832;19.100;2023-04-28T02:49:37;98704.13;;;2.32;100.00
33781;BME280;20097;50.832;19.100;2023-04-28T02:54:41;98706.09;;;2.28;100.00
33781;BME280;20097;50.832;19.100;2023-04-28T02:59:47;98698.94;;;2.21;100.00
33781;BME280;20097;50.832;19.100;2023-04-28T03:04:51;98715.56;;;2.28;100.00
33781;BME280;20097;50.832;19.100;2023-04-28T03:09:55;98704.47;;;2.27;100.00
33781;BME280;20097;50.832;19.100;2023-04-28T03:15:01;98702.22;;;2.23;100.00
33781;BME280;20097;50.832;19.100;2023-04-28T03:20:06;98692.81;;;2.11;100.00
33781;BME280;20097;50.832;19.100;2023-04-28T03:25:11;98709.91;;;2.12;100.00
33781;BME280;20097;50.832;19.100;2023-04-28T03:30:24;98707.59;;;2.20;100.00
33781;BME280;20097;50.832;19.100;2023-04-28T03:35:29;98707.47;;;2.21;100.00
33781;BME280;20097;50.832;19.100;2023-04-28T03:40:33;98704.84;;;2.34;100.00
33781;BME280;20097;50.832;19.100;2023-04-28T03:45:49;98708.41;;;2.44;100.00
33781;BME280;20097;50.832;19.100;2023-04-28T03:50:53;98711.25;;;2.63;100.00
33781;BME280;20097;50.832;19.100;2023-04-28T03:55:58;98707.41;;;2.79;100.00
33781;BME280;20097;50.832;19.100;2023-04-28T04:01:04;98710.13;;;3.00;100.00
33781;BME280;20097;50.832;19.100;2023-04-28T04:06:08;98716.34;;;3.20;100.00
33781;BME280;20097;50.832;19.100;2023-04-28T04:11:12;98713.41;;;3.46;100.00
33781;BME280;20097;50.832;19.100;2023-04-28T04:16:18;98719.34;;;3.69;100.00
33781;BME280;20097;50.832;19.100;2023-04-28T04:21:24;98717.66;;;3.90;100.00
33781;BME280;20097;50.832;19.100;2023-04-28T04:26:30;98718.06;;;4.06;100.00
33781;BME280;20097;50.832;19.100;2023-04-28T04:31:36;98712.72;;;4.18;100.00
33781;BME280;20097;50.832;19.100;2023-04-28T04:36:41;98716.34;;;4.27;100.00
33781;BME280;20097;50.832;19.100;2023-04-28T04:41:47;98711.63;;;4.32;100.00
33781;BME280;20097;50.832;19.100;2023-04-28T04:47:14;98711.50;;;4.34;100.00
33781;BME280;20097;50.832;19.100;2023-04-28T04:52:19;98711.50;;;4.34;100.00
33781;BME280;20097;50.832;19.100;2023-04-28T04:57:23;98718.94;;;4.48;100.00
33781;BME280;20097;50.832;19.100;2023-04-28T05:03:01;98716.00;;;4.73;100.00
33781;BME280;20097;50.832;19.100;2023-04-28T05:08:08;98710.09;;;4.91;100.00
33781;BME280;20097;50.832;19.100;2023-04-28T05:13:12;98717.66;;;5.04;100.00
33781;BME280;20097;50.832;19.100;2023-04-28T05:18:18;98712.47;;;5.34;100.00
33781;BME280;20097;50.832;19.100;2023-04-28T05:23:22;98710.09;;;5.61;100.00
33781;BME280;20097;50.832;19.100;2023-04-28T05:28:26;98716.56;;;5.76;100.00
33781;BME280;20097;50.832;19.100;2023-04-28T05:33:34;98720.00;;;5.86;100.00
33781;BME280;20097;50.832;19.100;2023-04-28T05:38:39;98721.84;;;6.05;100.00
33781;BME280;20097;50.832;19.100;2023-04-28T05:43:43;98710.78;;;6.31;100.00
33781;BME280;20097;50.832;19.100;2023-04-28T05:48:49;98725.25;;;6.53;93.29
33781;BME280;20097;50.832;19.100;2023-04-28T05:53:54;98709.91;;;6.78;91.10
33781;BME280;20097;50.832;19.100;2023-04-28T05:58:59;98716.25;;;7.03;88.78
33781;BME280;20097;50.832;19.100;2023-04-28T06:04:07;98720.00;;;7.28;85.76
33781;BME280;20097;50.832;19.100;2023-04-28T06:09:12;98722.91;;;7.52;81.82
33781;BME280;20097;50.832;19.100;2023-04-28T06:14:17;98721.97;;;7.80;78.24
33781;BME280;20097;50.832;19.100;2023-04-28T06:19:23;98714.78;;;8.09;76.78
33781;BME280;20097;50.832;19.100;2023-04-28T06:24:28;98706.94;;;8.36;76.73
33781;BME280;20097;50.832;19.100;2023-04-28T06:29:33;98716.28;;;8.64;72.48
33781;BME280;20097;50.832;19.100;2023-04-28T06:34:38;98720.41;;;8.92;71.50
33781;BME280;20097;50.832;19.100;2023-04-28T06:39:43;98718.75;;;9.17;67.58
33781;BME280;20097;50.832;19.100;2023-04-28T06:44:47;98710.91;;;9.42;67.69
33781;BME280;20097;50.832;19.100;2023-04-28T06:49:52;98714.44;;;9.67;65.11
33781;BME280;20097;50.832;19.100;2023-04-28T06:54:56;98703.91;;;9.93;64.76
33781;BME280;20097;50.832;19.100;2023-04-28T07:00:01;98708.41;;;10.08;61.96
33781;BME280;20097;50.832;19.100;2023-04-28T07:05:07;98708.41;;;10.24;60.91
33781;BME280;20097;50.832;19.100;2023-04-28T07:10:12;98704.00;;;10.41;59.55
33781;BME280;20097;50.832;19.100;2023-04-28T07:15:17;98697.50;;;10.53;60.14
33781;BME280;20097;50.832;19.100;2023-04-28T07:20:23;98690.66;;;10.60;59.04
33781;BME280;20097;50.832;19.100;2023-04-28T07:25:27;98690.78;;;10.82;58.88
33781;BME280;20097;50.832;19.100;2023-04-28T07:30:31;98679.31;;;10.99;57.72
33781;BME280;20097;50.832;19.100;2023-04-28T07:35:36;98683.03;;;11.21;57.92
33781;BME280;20097;50.832;19.100;2023-04-28T07:40:41;98684.97;;;11.27;55.57
33781;BME280;20097;50.832;19.100;2023-04-28T07:45:46;98681.16;;;11.46;55.89
33781;BME280;20097;50.832;19.100;2023-04-28T07:50:53;98678.63;;;11.60;55.78
33781;BME280;20097;50.832;19.100;2023-04-28T07:55:57;98670.78;;;11.68;55.31
33781;BME280;20097;50.832;19.100;2023-04-28T08:01:02;98676.84;;;11.69;52.81
33781;BME280;20097;50.832;19.100;2023-04-28T08:06:07;98677.13;;;12.04;53.18
33781;BME280;20097;50.832;19.100;2023-04-28T08:11:11;98673.31;;;12.29;52.33
33781;BME280;20097;50.832;19.100;2023-04-28T08:16:15;98669.53;;;12.55;52.37
33781;BME280;20097;50.832;19.100;2023-04-28T08:21:21;98671.16;;;12.93;50.47
33781;BME280;20097;50.832;19.100;2023-04-28T08:26:25;98677.78;;;13.18;49.17
33781;BME280;20097;50.832;19.100;2023-04-28T08:31:30;98667.94;;;13.05;48.56
33781;BME280;20097;50.832;19.100;2023-04-28T08:36:35;98658.28;;;12.69;48.48
33781;BME280;20097;50.832;19.100;2023-04-28T08:41:40;98651.75;;;12.50;47.99
33781;BME280;20097;50.832;19.100;2023-04-28T08:46:45;98642.84;;;12.74;50.09
33781;BME280;20097;50.832;19.100;2023-04-28T08:51:54;98644.78;;;12.94;49.20
33781;BME280;20097;50.832;19.100;2023-04-28T08:56:59;98650.50;;;13.27;49.10
33781;BME280;20097;50.832;19.100;2023-04-28T09:02:03;98650.59;;;13.19;47.07
33781;BME280;20097;50.832;19.100;2023-04-28T09:07:11;98645.88;;;13.29;47.32
33781;BME280;20097;50.832;19.100;2023-04-28T09:12:15;98633.47;;;13.52;47.95
33781;BME280;20097;50.832;19.100;2023-04-28T09:17:21;98643.13;;;13.51;48.34
33781;BME280;20097;50.832;19.100;2023-04-28T09:22:28;98625.47;;;13.96;48.46
33781;BME280;20097;50.832;19.100;2023-04-28T09:27:32;98636.03;;;14.44;48.10
33781;BME280;20097;50.832;19.100;2023-04-28T09:32:36;98625.03;;;14.28;46.20
33781;BME280;20097;50.832;19.100;2023-04-28T09:37:42;98626.25;;;14.87;46.30
33781;BME280;20097;50.832;19.100;2023-04-28T09:42:47;98624.06;;;15.25;44.92
33781;BME280;20097;50.832;19.100;2023-04-28T09:47:52;98624.94;;;14.97;43.02
33781;BME280;20097;50.832;19.100;2023-04-28T09:52:57;98616.00;;;14.64;43.41
33781;BME280;20097;50.832;19.100;2023-04-28T09:58:04;98613.75;;;14.89;43.81
33781;BME280;20097;50.832;19.100;2023-04-28T10:03:09;98603.81;;;15.19;43.57
33781;BME280;20097;50.832;19.100;2023-04-28T10:08:16;98587.81;;;15.54;44.38
33781;BME280;20097;50.832;19.100;2023-04-28T10:13:22;98598.06;;;15.43;42.77
33781;BME280;20097;50.832;19.100;2023-04-28T10:18:26;98587.44;;;15.70;44.21
33781;BME280;20097;50.832;19.100;2023-04-28T10:24:12;98575.94;;;15.91;43.38
33781;BME280;20097;50.832;19.100;2023-04-28T10:29:22;98578.38;;;16.18;43.50
33781;BME280;20097;50.832;19.100;2023-04-28T10:34:26;98565.66;;;16.48;43.53
33781;BME280;20097;50.832;19.100;2023-04-28T10:39:34;98560.75;;;16.71;42.50
33781;BME280;20097;50.832;19.100;2023-04-28T10:44:41;98553.81;;;16.83;42.26
33781;BME280;20097;50.832;19.100;2023-04-28T10:50:06;98546.81;;;17.21;42.30
33781;BME280;20097;50.832;19.100;2023-04-28T10:55:29;98543.41;;;17.08;42.85
33781;BME280;20097;50.832;19.100;2023-04-28T11:00:35;98540.13;;;16.49;41.67
33781;BME280;20097;50.832;19.100;2023-04-28T11:05:40;98530.78;;;16.53;41.90
33781;BME280;20097;50.832;19.100;2023-04-28T11:11:18;98510.09;;;16.43;42.86
33781;BME280;20097;50.832;19.100;2023-04-28T11:16:23;98520.47;;;17.15;41.35
33781;BME280;20097;50.832;19.100;2023-04-28T11:21:28;98514.22;;;16.96;41.69
33781;BME280;20097;50.832;19.100;2023-04-28T11:26:36;98515.88;;;16.91;40.64
33781;BME280;20097;50.832;19.100;2023-04-28T11:31:47;98504.84;;;17.57;40.39
33781;BME280;20097;50.832;19.100;2023-04-28T11:36:52;98514.91;;;17.98;40.36
33781;BME280;20097;50.832;19.100;2023-04-28T11:41:59;98510.91;;;18.63;41.23
33781;BME280;20097;50.832;19.100;2023-04-28T11:47:04;98522.03;;;18.47;38.64
33781;BME280;20097;50.832;19.100;2023-04-28T11:52:10;98506.06;;;17.55;38.28
33781;BME280;20097;50.832;19.100;2023-04-28T11:57:19;98491.53;;;17.39;38.93
33781;BME280;20097;50.832;19.100;2023-04-28T12:02:25;98483.88;;;16.81;39.33
33781;BME280;20097;50.832;19.100;2023-04-28T12:07:39;98489.19;;;18.12;39.70
33781;BME280;20097;50.832;19.100;2023-04-28T12:12:45;98483.88;;;17.25;37.86
33781;BME280;20097;50.832;19.100;2023-04-28T12:17:54;98487.91;;;17.96;37.35
33781;BME280;20097;50.832;19.100;2023-04-28T12:22:59;98489.38;;;17.92;38.64
33781;BME280;20097;50.832;19.100;2023-04-28T12:28:06;98486.63;;;18.48;37.84
33781;BME280;20097;50.832;19.100;2023-04-28T12:33:22;98471.38;;;17.76;39.56
33781;BME280;20097;50.832;19.100;2023-04-28T12:38:27;98461.97;;;17.87;39.64
33781;BME280;20097;50.832;19.100;2023-04-28T12:43:32;98465.06;;;17.84;38.25
33781;BME280;20097;50.832;19.100;2023-04-28T12:48:37;98448.28;;;19.23;38.88
33781;BME280;20097;50.832;19.100;2023-04-28T12:53:41;98447.25;;;19.42;37.10
33781;BME280;20097;50.832;19.100;2023-04-28T12:58:46;98454.53;;;19.46;35.25
33781;BME280;20097;50.832;19.100;2023-04-28T13:03:50;98427.84;;;19.59;36.17
33781;BME280;20097;50.832;19.100;2023-04-28T13:08:55;98432.66;;;20.78;35.77
33781;BME280;20097;50.832;19.100;2023-04-28T13:14:00;98425.88;;;21.10;36.06
33781;BME280;20097;50.832;19.100;2023-04-28T13:19:05;98428.53;;;19.55;35.20
33781;BME280;20097;50.832;19.100;2023-04-28T13:24:12;98414.84;;;18.98;38.12
33781;BME280;20097;50.832;19.100;2023-04-28T13:29:18;98421.22;;;18.43;36.63
33781;BME280;20097;50.832;19.100;2023-04-28T13:34:22;98402.78;;;19.96;38.08
33781;BME280;20097;50.832;19.100;2023-04-28T13:39:26;98398.03;;;21.24;37.75
33781;BME280;20097;50.832;19.100;2023-04-28T13:44:32;98412.81;;;20.40;33.88
33781;BME280;20097;50.832;19.100;2023-04-28T13:49:37;98392.06;;;19.91;35.04
33781;BME280;20097;50.832;19.100;2023-04-28T13:54:42;98380.66;;;19.56;36.95
33781;BME280;20097;50.832;19.100;2023-04-28T13:59:48;98370.38;;;20.40;36.15
33781;BME280;20097;50.832;19.100;2023-04-28T14:04:52;98380.41;;;21.51;33.79
33781;BME280;20097;50.832;19.100;2023-04-28T14:09:57;98377.19;;;21.49;34.92
33781;BME280;20097;50.832;19.100;2023-04-28T14:15:03;98372.69;;;21.33;33.88
33781;BME280;20097;50.832;19.100;2023-04-28T14:20:08;98360.53;;;21.20;35.89
33781;BME280;20097;50.832;19.100;2023-04-28T14:25:13;98359.56;;;21.43;36.62
33781;BME280;20097;50.832;19.100;2023-04-28T14:30:20;98353.56;;;21.03;36.29
33781;BME280;20097;50.832;19.100;2023-04-28T14:35:24;98349.31;;;21.02;36.99
33781;BME280;20097;50.832;19.100;2023-04-28T14:40:29;98345.06;;;20.89;35.53
33781;BME280;20097;50.832;19.100;2023-04-28T14:45:34;98338.69;;;20.62;35.39
33781;BME280;20097;50.832;19.100;2023-04-28T14:50:41;98346.56;;;20.97;35.59
33781;BME280;20097;50.832;19.100;2023-04-28T14:55:46;98331.06;;;20.94;36.51
33781;BME280;20097;50.832;19.100;2023-04-28T15:00:51;98328.47;;;20.26;34.71
33781;BME280;20097;50.832;19.100;2023-04-28T15:05:56;98337.56;;;20.18;34.65
33781;BME280;20097;50.832;19.100;2023-04-28T15:11:00;98347.72;;;21.34;32.76
33781;BME280;20097;50.832;19.100;2023-04-28T15:16:05;98343.59;;;20.82;33.00
33781;BME280;20097;50.832;19.100;2023-04-28T15:21:10;98328.59;;;19.73;36.38
33781;BME280;20097;50.832;19.100;2023-04-28T15:26:14;98326.75;;;19.09;37.81
33781;BME280;20097;50.832;19.100;2023-04-28T15:31:19;98312.41;;;18.76;38.07
33781;BME280;20097;50.832;19.100;2023-04-28T15:36:24;98312.91;;;18.01;39.54
33781;BME280;20097;50.832;19.100;2023-04-28T15:41:28;98305.72;;;17.90;38.90
33781;BME280;20097;50.832;19.100;2023-04-28T15:46:34;98300.44;;;17.71;39.63
33781;BME280;20097;50.832;19.100;2023-04-28T15:51:39;98295.22;;;17.40;40.47
33781;BME280;20097;50.832;19.100;2023-04-28T15:56:44;98284.34;;;17.55;40.90
33781;BME280;20097;50.832;19.100;2023-04-28T16:01:50;98279.22;;;17.35;40.97
33781;BME280;20097;50.832;19.100;2023-04-28T16:06:54;98274.59;;;17.06;40.98
33781;BME280;20097;50.832;19.100;2023-04-28T16:12:00;98263.31;;;16.99;41.96
33781;BME280;20097;50.832;19.100;2023-04-28T16:17:08;98254.56;;;16.74;42.96
33781;BME280;20097;50.832;19.100;2023-04-28T16:22:12;98253.78;;;16.67;42.21
33781;BME280;20097;50.832;19.100;2023-04-28T16:27:16;98244.13;;;16.61;42.07
33781;BME280;20097;50.832;19.100;2023-04-28T16:32:22;98241.59;;;16.35;41.78
33781;BME280;20097;50.832;19.100;2023-04-28T16:37:26;98236.78;;;16.25;42.38
33781;BME280;20097;50.832;19.100;2023-04-28T16:42:30;98228.59;;;16.02;42.44
33781;BME280;20097;50.832;19.100;2023-04-28T16:47:35;98224.88;;;15.79;42.44
33781;BME280;20097;50.832;19.100;2023-04-28T16:52:40;98223.06;;;15.66;43.59
33781;BME280;20097;50.832;19.100;2023-04-28T16:57:44;98219.06;;;15.51;44.28
33781;BME280;20097;50.832;19.100;2023-04-28T17:02:49;98213.22;;;15.42;44.39
33781;BME280;20097;50.832;19.100;2023-04-28T17:07:53;98209.59;;;15.30;45.58
33781;BME280;20097;50.832;19.100;2023-04-28T17:13:00;98202.50;;;15.11;46.80
33781;BME280;20097;50.832;19.100;2023-04-28T17:18:05;98201.13;;;14.89;48.35
33781;BME280;20097;50.832;19.100;2023-04-28T17:23:09;98191.00;;;14.53;48.96
33781;BME280;20097;50.832;19.100;2023-04-28T17:28:14;98179.88;;;14.38;48.61
33781;BME280;20097;50.832;19.100;2023-04-28T17:33:19;98169.31;;;14.12;50.53
33781;BME280;20097;50.832;19.100;2023-04-28T17:38:23;98170.06;;;13.93;50.17
33781;BME280;20097;50.832;19.100;2023-04-28T17:43:27;98162.75;;;13.75;51.31
33781;BME280;20097;50.832;19.100;2023-04-28T17:48:33;98171.81;;;13.73;51.59
33781;BME280;20097;50.832;19.100;2023-04-28T17:53:37;98169.94;;;13.60;51.17
33781;BME280;20097;50.832;19.100;2023-04-28T17:58:41;98172.78;;;13.59;50.46
33781;BME280;20097;50.832;19.100;2023-04-28T18:03:47;98167.88;;;13.49;51.34
33781;BME280;20097;50.832;19.100;2023-04-28T18:08:51;98167.19;;;13.34;51.42
33781;BME280;20097;50.832;19.100;2023-04-28T18:13:57;98158.03;;;13.17;52.86
33781;BME280;20097;50.832;19.100;2023-04-28T18:19:03;98167.81;;;13.02;52.89
33781;BME280;20097;50.832;19.100;2023-04-28T18:24:07;98161.03;;;12.87;53.56
33781;BME280;20097;50.832;19.100;2023-04-28T18:29:12;98165.31;;;12.67;54.57
33781;BME280;20097;50.832;19.100;2023-04-28T18:34:18;98162.34;;;12.49;55.19
33781;BME280;20097;50.832;19.100;2023-04-28T18:39:22;98156.44;;;12.19;56.51
33781;BME280;20097;50.832;19.100;2023-04-28T18:44:27;98160.53;;;12.07;57.68
33781;BME280;20097;50.832;19.100;2023-04-28T18:49:32;98166.19;;;11.89;57.83
33781;BME280;20097;50.832;19.100;2023-04-28T18:54:37;98169.22;;;11.72;58.78
33781;BME280;20097;50.832;19.100;2023-04-28T18:59:41;98167.69;;;11.48;61.10
33781;BME280;20097;50.832;19.100;2023-04-28T19:04:46;98178.50;;;11.45;60.71
33781;BME280;20097;50.832;19.100;2023-04-28T19:09:50;98198.88;;;11.35;60.38
33781;BME280;20097;50.832;19.100;2023-04-28T19:14:55;98186.25;;;11.24;60.84
33781;BME280;20097;50.832;19.100;2023-04-28T19:20:00;98189.22;;;11.21;60.81
33781;BME280;20097;50.832;19.100;2023-04-28T19:25:06;98193.72;;;11.13;60.55
33781;BME280;20097;50.832;19.100;2023-04-28T19:30:12;98185.78;;;11.06;60.65
33781;BME280;20097;50.832;19.100;2023-04-28T19:35:17;98177.69;;;11.01;60.58
33781;BME280;20097;50.832;19.100;2023-04-28T19:40:23;98183.91;;;11.00;60.59
33781;BME280;20097;50.832;19.100;2023-04-28T19:45:27;98184.53;;;11.02;60.57
33781;BME280;20097;50.832;19.100;2023-04-28T19:50:33;98178.88;;;10.98;60.55
33781;BME280;20097;50.832;19.100;2023-04-28T19:55:37;98178.31;;;10.88;60.72
33781;BME280;20097;50.832;19.100;2023-04-28T20:00:42;98176.22;;;10.84;61.40
33781;BME280;20097;50.832;19.100;2023-04-28T20:05:48;98173.69;;;10.76;62.04
33781;BME280;20097;50.832;19.100;2023-04-28T20:10:52;98171.00;;;10.69;62.35
33781;BME280;20097;50.832;19.100;2023-04-28T20:15:57;98163.69;;;10.65;61.83
33781;BME280;20097;50.832;19.100;2023-04-28T20:21:02;98156.13;;;10.55;62.78
33781;BME280;20097;50.832;19.100;2023-04-28T20:26:11;98157.97;;;10.47;62.88
33781;BME280;20097;50.832;19.100;2023-04-28T20:31:15;98168.13;;;10.42;63.12
33781;BME280;20097;50.832;19.100;2023-04-28T20:36:21;98169.81;;;10.35;63.12
33781;BME280;20097;50.832;19.100;2023-04-28T20:41:27;98169.50;;;10.30;63.10
33781;BME280;20097;50.832;19.100;2023-04-28T20:46:31;98171.84;;;10.25;62.94
33781;BME280;20097;50.832;19.100;2023-04-28T20:51:40;98172.31;;;10.28;62.65
33781;BME280;20097;50.832;19.100;2023-04-28T20:56:46;98160.38;;;10.34;63.13
33781;BME280;20097;50.832;19.100;2023-04-28T21:01:51;98166.50;;;10.41;62.99
33781;BME280;20097;50.832;19.100;2023-04-28T21:06:56;98160.59;;;10.47;62.65
33781;BME280;20097;50.832;19.100;2023-04-28T21:12:03;98158.72;;;10.55;61.77
33781;BME280;20097;50.832;19.100;2023-04-28T21:17:08;98159.97;;;10.59;61.44
33781;BME280;20097;50.832;19.100;2023-04-28T21:22:13;98161.44;;;10.62;60.83
33781;BME280;20097;50.832;19.100;2023-04-28T21:27:18;98166.47;;;10.63;60.91
33781;BME280;20097;50.832;19.100;2023-04-28T21:32:22;98159.81;;;10.61;60.28
33781;BME280;20097;50.832;19.100;2023-04-28T21:37:29;98164.66;;;10.64;59.42
33781;BME280;20097;50.832;19.100;2023-04-28T21:42:33;98158.28;;;10.66;58.57
33781;BME280;20097;50.832;19.100;2023-04-28T21:47:37;98164.94;;;10.69;58.10
33781;BME280;20097;50.832;19.100;2023-04-28T21:52:46;98154.16;;;10.72;58.47
33781;BME280;20097;50.832;19.100;2023-04-28T21:57:50;98156.84;;;10.64;58.68
33781;BME280;20097;50.832;19.100;2023-04-28T22:02:56;98155.66;;;10.52;58.79
33781;BME280;20097;50.832;19.100;2023-04-28T22:08:02;98156.59;;;10.36;58.83
33781;BME280;20097;50.832;19.100;2023-04-28T22:13:06;98150.84;;;10.18;59.31
33781;BME280;20097;50.832;19.100;2023-04-28T22:18:10;98150.28;;;10.00;59.76
33781;BME280;20097;50.832;19.100;2023-04-28T22:23:16;98143.34;;;9.93;59.85
33781;BME280;20097;50.832;19.100;2023-04-28T22:28:20;98136.28;;;9.79;59.86
33781;BME280;20097;50.832;19.100;2023-04-28T22:33:24;98124.00;;;9.56;62.19
33781;BME280;20097;50.832;19.100;2023-04-28T22:38:30;98124.78;;;9.34;62.24
33781;BME280;20097;50.832;19.100;2023-04-28T22:43:34;98116.53;;;9.23;63.66
33781;BME280;20097;50.832;19.100;2023-04-28T22:48:38;98112.50;;;9.12;64.55
33781;BME280;20097;50.832;19.100;2023-04-28T22:53:44;98113.22;;;8.98;64.45
33781;BME280;20097;50.832;19.100;2023-04-28T22:58:49;98103.03;;;8.73;66.25
33781;BME280;20097;50.832;19.100;2023-04-28T23:03:53;98105.03;;;8.55;66.49
33781;BME280;20097;50.832;19.100;2023-04-28T23:08:59;98104.41;;;8.28;67.99
33781;BME280;20097;50.832;19.100;2023-04-28T23:14:05;98095.94;;;8.02;71.84
33781;BME280;20097;50.832;19.100;2023-04-28T23:19:10;98096.88;;;7.77;73.04
33781;BME280;20097;50.832;19.100;2023-04-28T23:24:15;98094.09;;;7.63;75.29
33781;BME280;20097;50.832;19.100;2023-04-28T23:29:19;98081.59;;;7.50;78.67
33781;BME280;20097;50.832;19.100;2023-04-28T23:34:24;98086.75;;;7.42;79.83
33781;BME280;20097;50.832;19.100;2023-04-28T23:39:29;98078.47;;;7.31;81.94
33781;BME280;20097;50.832;19.100;2023-04-28T23:44:33;98070.97;;;7.20;81.79
33781;BME280;20097;50.832;19.100;2023-04-28T23:49:37;98083.44;;;7.16;81.22
33781;BME280;20097;50.832;19.100;2023-04-28T23:54:43;98078.38;;;7.07;80.01
33781;BME280;20097;50.832;19.100;2023-04-28T23:59:47;98078.69;;;7.04;78.93
